Time;durP1;ratioP1;P1;durP2;ratioP2;P2;SDS_P1;SDS_P2;PMS_P1;PMS_P2;Temp;Humidity;BMP_temperature;BMP_pressure;BME280_temperature;BME280_humidity;BME280_pressure;Samples;Min_cycle;Max_cycle;Signal;HPM_P1;HPM_P2
2021/12/14 00:00:07;;;;;;;1.55;0.90;;;18.50;85.30;;;;;;4991778;28;20137;-64
2021/12/14 00:02:33;;;;;;;1.00;0.82;;;18.50;85.40;;;;;;4992389;28;20089;-64
2021/12/14 00:05:00;;;;;;;1.45;1.05;;;18.50;85.40;;;;;;4992069;28;20503;-65
2021/12/14 00:07:27;;;;;;;1.25;1.00;;;18.50;85.40;;;;;;4992554;28;20043;-64
2021/12/14 00:10:00;;;;;;;1.27;0.98;;;18.40;85.40;;;;;;4991649;28;20505;-64
2021/12/14 00:12:36;;;;;;;0.90;0.77;;;18.40;85.40;;;;;;4992197;28;20077;-64
2021/12/14 00:15:04;;;;;;;1.52;1.10;;;18.40;85.50;;;;;;4992132;28;20096;-64
2021/12/14 00:17:30;;;;;;;0.95;0.82;;;18.40;85.60;;;;;;4992181;28;20046;-64
2021/12/14 00:19:57;;;;;;;1.17;0.80;;;18.40;85.60;;;;;;4995527;28;20054;-64
2021/12/14 00:22:32;;;;;;;1.30;1.10;;;18.40;85.60;;;;;;4995678;28;20054;-64
2021/12/14 00:24:57;;;;;;;0.90;0.80;;;18.30;85.60;;;;;;4983122;28;20051;-64
2021/12/14 00:27:24;;;;;;;2.97;1.02;;;18.30;85.60;;;;;;4979268;28;20607;-64
2021/12/14 00:29:50;;;;;;;1.55;0.90;;;18.30;85.60;;;;;;4995656;28;20058;-64
2021/12/14 00:32:19;;;;;;;1.33;0.95;;;18.30;85.60;;;;;;4995898;28;20141;-64
2021/12/14 00:34:45;;;;;;;1.20;1.10;;;18.20;85.60;;;;;;4995054;28;20415;-64
2021/12/14 00:37:12;;;;;;;1.33;0.95;;;18.20;85.70;;;;;;4995323;28;20121;-64
2021/12/14 00:39:38;;;;;;;1.00;0.90;;;18.20;85.70;;;;;;4995607;28;20137;-64
2021/12/14 00:42:05;;;;;;;1.30;1.05;;;18.10;85.70;;;;;;4995299;28;20050;-64
2021/12/14 00:44:33;;;;;;;1.08;0.98;;;18.10;85.70;;;;;;4995356;28;20121;-64
2021/12/14 00:46:59;;;;;;;1.35;0.80;;;18.10;85.80;;;;;;4994960;28;20428;-64
2021/12/14 00:49:26;;;;;;;1.20;0.93;;;18.10;85.80;;;;;;4995187;28;20058;-64
2021/12/14 00:51:54;;;;;;;1.60;1.20;;;18.10;85.80;;;;;;4994913;28;20145;-64
2021/12/14 00:54:20;;;;;;;0.70;0.70;;;18.10;85.80;;;;;;4994190;28;20049;-64
2021/12/14 00:56:47;;;;;;;1.42;1.13;;;18.00;85.80;;;;;;4995245;28;20121;-64
2021/12/14 00:59:13;;;;;;;0.85;0.85;;;18.00;85.80;;;;;;4995046;28;20042;-64
2021/12/14 01:01:41;;;;;;;1.15;0.75;;;18.00;85.80;;;;;;4994503;28;20058;-64
2021/12/14 01:04:08;;;;;;;1.25;0.90;;;18.00;85.80;;;;;;4995028;28;20046;-64
2021/12/14 01:06:34;;;;;;;1.20;0.93;;;18.00;85.90;;;;;;4994818;28;20591;-64
2021/12/14 01:09:02;;;;;;;1.40;1.00;;;18.00;85.90;;;;;;4993018;28;20181;-64
2021/12/14 01:11:31;;;;;;;1.33;1.08;;;17.90;85.90;;;;;;4975406;28;20055;-64
2021/12/14 01:14:01;;;;;;;1.15;0.90;;;17.90;85.90;;;;;;4994600;28;20057;-64
2021/12/14 01:16:34;;;;;;;1.42;1.20;;;17.90;85.90;;;;;;4994673;28;20125;-65
2021/12/14 01:19:12;;;;;;;1.17;0.90;;;17.90;86.00;;;;;;4995009;28;20396;-64
2021/12/14 01:21:56;;;;;;;1.08;0.98;;;17.90;86.00;;;;;;4993882;28;20085;-64
2021/12/14 01:24:35;;;;;;;1.00;0.90;;;17.80;86.00;;;;;;4975552;28;20047;-64
2021/12/14 01:27:02;;;;;;;1.48;1.00;;;17.80;86.00;;;;;;4994437;28;20051;-65
2021/12/14 01:29:31;;;;;;;0.95;0.80;;;17.80;86.00;;;;;;4993876;28;20145;-64
2021/12/14 01:32:00;;;;;;;1.63;1.10;;;17.80;86.00;;;;;;4994043;28;20149;-64
2021/12/14 01:34:27;;;;;;;1.67;1.15;;;17.80;86.00;;;;;;4994316;28;20391;-64
2021/12/14 01:36:56;;;;;;;1.08;0.90;;;17.70;86.00;;;;;;4994251;28;20122;-65
2021/12/14 01:39:45;;;;;;;1.42;1.02;;;17.70;86.00;;;;;;4994311;28;20046;-65
2021/12/14 01:42:10;;;;;;;1.30;1.20;;;17.70;86.00;;;;;;4994325;28;20470;-64
2021/12/14 01:44:36;;;;;;;1.63;1.30;;;17.70;86.10;;;;;;4994346;28;20052;-64
2021/12/14 01:47:03;;;;;;;1.65;1.10;;;17.70;86.10;;;;;;4975272;28;20125;-64
2021/12/14 01:49:29;;;;;;;1.20;0.98;;;17.70;86.10;;;;;;4989229;28;20046;-64
2021/12/14 01:51:56;;;;;;;1.05;0.93;;;17.70;86.10;;;;;;4982354;28;20490;-64
2021/12/14 01:54:22;;;;;;;1.02;0.82;;;17.60;86.10;;;;;;4987510;28;20069;-64
2021/12/14 01:56:49;;;;;;;1.83;1.30;;;17.60;86.10;;;;;;4994227;28;20046;-64
2021/12/14 01:59:15;;;;;;;1.15;1.00;;;17.60;86.20;;;;;;4994077;28;20061;-64
2021/12/14 02:01:53;;;;;;;1.10;0.77;;;17.60;86.20;;;;;;4993642;28;20047;-64
2021/12/14 02:04:19;;;;;;;1.42;0.90;;;17.60;86.20;;;;;;4993782;28;20055;-64
2021/12/14 02:06:46;;;;;;;1.08;0.95;;;17.60;86.20;;;;;;4993699;28;20469;-64
2021/12/14 02:09:12;;;;;;;1.15;0.80;;;17.60;86.20;;;;;;4993427;28;20147;-64
2021/12/14 02:11:39;;;;;;;1.20;1.10;;;17.50;86.20;;;;;;4993851;28;20133;-64
2021/12/14 02:14:05;;;;;;;1.35;1.02;;;17.50;86.20;;;;;;4993296;28;20504;-64
2021/12/14 02:16:32;;;;;;;0.90;0.75;;;17.50;86.20;;;;;;4993418;28;20397;-64
2021/12/14 02:18:58;;;;;;;1.25;1.08;;;17.50;86.20;;;;;;4993612;28;20088;-64
2021/12/14 02:21:25;;;;;;;1.17;1.08;;;17.50;86.30;;;;;;4993513;28;20050;-64
2021/12/14 02:23:51;;;;;;;1.00;0.90;;;17.50;86.30;;;;;;4993158;28;20050;-64
2021/12/14 02:26:18;;;;;;;1.45;0.90;;;17.40;86.20;;;;;;4993413;28;20137;-64
2021/12/14 02:28:44;;;;;;;1.30;1.00;;;17.40;86.20;;;;;;4992964;28;20137;-64
2021/12/14 02:31:11;;;;;;;1.33;1.00;;;17.40;86.20;;;;;;4992929;28;20046;-64
2021/12/14 02:33:37;;;;;;;1.08;0.90;;;17.40;86.30;;;;;;4993289;28;20326;-64
2021/12/14 02:36:04;;;;;;;1.33;0.90;;;17.40;86.30;;;;;;4993060;28;20046;-64
2021/12/14 02:38:30;;;;;;;1.25;0.93;;;17.40;86.30;;;;;;4992649;28;20471;-64
2021/12/14 02:40:57;;;;;;;1.15;1.00;;;17.40;86.30;;;;;;4993804;28;20042;-64
2021/12/14 02:43:24;;;;;;;1.98;1.20;;;17.30;86.30;;;;;;4993301;28;20057;-64
2021/12/14 02:45:50;;;;;;;1.42;1.02;;;17.30;86.30;;;;;;4993294;28;20050;-64
2021/12/14 02:48:17;;;;;;;1.98;1.02;;;17.30;86.30;;;;;;4992563;28;20488;-64
2021/12/14 02:50:44;;;;;;;1.25;1.00;;;17.30;86.30;;;;;;4991567;28;20089;-64
2021/12/14 02:53:10;;;;;;;1.50;1.02;;;17.30;86.30;;;;;;4993287;28;20057;-64
2021/12/14 02:55:37;;;;;;;1.50;1.02;;;17.30;86.30;;;;;;4993062;28;20049;-64
2021/12/14 02:58:05;;;;;;;1.38;1.13;;;17.30;86.40;;;;;;4993029;28;20057;-64
2021/12/14 03:00:32;;;;;;;1.75;1.00;;;17.20;86.40;;;;;;4992603;28;20562;-64
2021/12/14 03:02:58;;;;;;;1.20;0.88;;;17.20;86.30;;;;;;4993196;28;20124;-63
2021/12/14 03:05:24;;;;;;;1.10;1.00;;;17.20;86.40;;;;;;4992620;28;20078;-64
2021/12/14 03:07:51;;;;;;;1.10;1.00;;;17.20;86.40;;;;;;4992962;28;20046;-64
2021/12/14 03:10:33;;;;;;;1.40;0.95;;;17.20;86.40;;;;;;4992835;28;20529;-65
2021/12/14 03:13:00;;;;;;;1.52;1.02;;;17.20;87.00;;;;;;4992992;28;20053;-64
2021/12/14 03:15:26;;;;;;;1.60;1.15;;;17.20;86.40;;;;;;4992906;28;20050;-64
2021/12/14 03:17:53;;;;;;;1.10;1.00;;;17.20;86.40;;;;;;4992752;28;20496;-64
2021/12/14 03:20:19;;;;;;;1.27;1.08;;;17.10;86.40;;;;;;4990856;28;20146;-64
2021/12/14 03:22:46;;;;;;;1.50;1.00;;;17.10;87.00;;;;;;4981542;28;20050;-64
2021/12/14 03:25:13;;;;;;;1.90;1.30;;;17.10;86.40;;;;;;4992128;28;20081;-64
2021/12/14 03:27:40;;;;;;;1.30;1.20;;;17.10;86.40;;;;;;4992739;28;20049;-64
2021/12/14 03:30:06;;;;;;;1.27;1.17;;;17.10;86.50;;;;;;4992816;28;20054;-64
2021/12/14 03:32:33;;;;;;;1.35;1.00;;;17.10;86.50;;;;;;4992622;28;20043;-64
2021/12/14 03:34:59;;;;;;;1.40;1.30;;;17.10;86.50;;;;;;4992428;28;20125;-64
2021/12/14 03:37:26;;;;;;;0.88;0.75;;;17.10;86.50;;;;;;4992577;28;20054;-64
2021/12/14 03:39:52;;;;;;;1.83;1.17;;;17.00;86.50;;;;;;4992766;28;20050;-64
2021/12/14 03:42:21;;;;;;;1.30;1.15;;;17.00;86.50;;;;;;4992423;28;20134;-65
2021/12/14 03:44:47;;;;;;;1.48;1.33;;;17.00;86.50;;;;;;4992728;28;20495;-64
2021/12/14 03:47:14;;;;;;;1.30;1.20;;;17.00;86.50;;;;;;4992626;28;20072;-64
2021/12/14 03:49:40;;;;;;;1.58;1.20;;;17.00;86.50;;;;;;4988760;28;20054;-64
2021/12/14 03:52:06;;;;;;;1.67;1.20;;;17.00;86.50;;;;;;4992511;28;20630;-64
2021/12/14 03:54:33;;;;;;;1.20;1.10;;;17.00;86.50;;;;;;4995685;28;20129;-64
2021/12/14 03:56:59;;;;;;;1.42;1.10;;;17.00;86.50;;;;;;4996525;28;20133;-64
2021/12/14 03:59:26;;;;;;;1.45;1.25;;;17.00;86.50;;;;;;4996383;28;20066;-64
2021/12/14 04:01:52;;;;;;;1.40;1.25;;;16.90;86.70;;;;;;4996194;28;20129;-64
2021/12/14 04:04:19;;;;;;;1.25;0.90;;;16.90;86.50;;;;;;4996171;28;20137;-64
2021/12/14 04:06:46;;;;;;;1.65;1.27;;;16.90;86.50;;;;;;4996054;28;20850;-64
2021/12/14 04:09:12;;;;;;;1.35;1.13;;;16.90;86.50;;;;;;4995967;28;20047;-64
2021/12/14 04:11:38;;;;;;;1.30;1.20;;;16.90;86.50;;;;;;4996194;28;20142;-64
2021/12/14 04:14:07;;;;;;;1.50;1.30;;;16.90;86.50;;;;;;4996128;28;20133;-64
2021/12/14 04:16:33;;;;;;;1.58;1.40;;;16.90;86.50;;;;;;4996002;28;20050;-64
2021/12/14 04:19:04;;;;;;;1.27;1.10;;;16.90;86.60;;;;;;4995775;28;20057;-63
2021/12/14 04:21:30;;;;;;;1.20;1.10;;;16.90;86.60;;;;;;4996246;28;20046;-64
2021/12/14 04:23:57;;;;;;;1.50;1.30;;;16.80;86.60;;;;;;4995491;28;20050;-64
2021/12/14 04:26:23;;;;;;;1.77;1.30;;;16.80;86.50;;;;;;4995496;28;20675;-64
2021/12/14 04:28:50;;;;;;;1.20;1.10;;;16.80;86.60;;;;;;4988639;28;20432;-63
2021/12/14 04:31:16;;;;;;;1.80;1.30;;;16.80;86.60;;;;;;4989969;28;20054;-64
2021/12/14 04:33:43;;;;;;;1.58;1.20;;;16.80;86.60;;;;;;4995596;28;20328;-64
2021/12/14 04:36:10;;;;;;;1.20;1.10;;;16.80;86.60;;;;;;4995139;28;20042;-64
2021/12/14 04:38:45;;;;;;;2.33;1.50;;;16.80;86.60;;;;;;4986087;28;20050;-64
2021/12/14 04:52:08;;;;;;;1.70;1.30;;;16.70;86.60;;;;;;4995015;28;20088;-64
2021/12/14 04:54:35;;;;;;;1.50;1.40;;;16.70;86.60;;;;;;4995135;28;20070;-65
2021/12/14 04:57:01;;;;;;;2.00;1.40;;;16.70;86.60;;;;;;4995044;28;20134;-64
2021/12/14 04:59:28;;;;;;;1.67;1.50;;;16.70;86.60;;;;;;4995198;28;20042;-64
2021/12/14 05:01:54;;;;;;;1.55;1.40;;;16.60;86.60;;;;;;4994938;28;20554;-63
2021/12/14 05:04:21;;;;;;;1.80;1.40;;;16.60;86.60;;;;;;4993859;28;20129;-64
2021/12/14 05:06:50;;;;;;;1.95;1.13;;;16.60;86.70;;;;;;4994688;28;20140;-64
2021/12/14 05:09:22;;;;;;;1.85;1.40;;;16.60;86.70;;;;;;4994877;28;20079;-64
2021/12/14 05:11:48;;;;;;;1.70;1.27;;;16.60;86.70;;;;;;4995069;28;20046;-64
2021/12/14 05:14:15;;;;;;;1.50;1.20;;;16.60;86.70;;;;;;4995230;28;20052;-64
2021/12/14 05:16:41;;;;;;;1.63;1.30;;;16.60;86.70;;;;;;4992089;28;20047;-63
2021/12/14 05:19:08;;;;;;;1.83;1.38;;;16.60;86.70;;;;;;4975452;28;20507;-64
2021/12/14 05:21:34;;;;;;;1.95;1.50;;;16.60;86.70;;;;;;4975548;28;20411;-64
2021/12/14 05:24:01;;;;;;;1.38;1.27;;;16.60;86.70;;;;;;4978403;28;20130;-64
2021/12/14 05:26:27;;;;;;;1.85;1.45;;;16.60;86.70;;;;;;4994810;28;20136;-64
2021/12/14 05:28:54;;;;;;;1.77;1.30;;;16.60;86.70;;;;;;4994657;28;20590;-64
2021/12/14 05:31:20;;;;;;;1.48;1.25;;;16.60;86.80;;;;;;4994452;28;20057;-64
2021/12/14 05:33:46;;;;;;;1.50;1.35;;;16.50;86.70;;;;;;4994742;28;20130;-64
2021/12/14 05:36:14;;;;;;;1.88;1.55;;;16.50;86.80;;;;;;4994562;28;20047;-64
2021/12/14 05:38:48;;;;;;;1.80;1.10;;;16.50;86.70;;;;;;4994458;28;20137;-64
2021/12/14 05:43:06;;;;;;;1.60;1.38;;;16.50;86.80;;;;;;4994576;28;20058;-64
2021/12/14 05:44:00;;;;;;;1.63;1.52;;;16.50;86.80;;;;;;4994209;28;20104;-64
2021/12/14 05:46:27;;;;;;;1.58;1.38;;;16.50;86.80;;;;;;4994310;28;20050;-64
2021/12/14 05:48:53;;;;;;;1.83;1.50;;;16.50;86.80;;;;;;4994261;28;20057;-64
2021/12/14 05:51:20;;;;;;;1.50;1.40;;;16.50;86.90;;;;;;4994237;28;20046;-64
2021/12/14 05:53:46;;;;;;;1.63;1.23;;;16.50;86.90;;;;;;4994058;28;20129;-64
2021/12/14 05:56:13;;;;;;;1.50;1.40;;;16.40;86.80;;;;;;4985826;28;20397;-64
2021/12/14 05:58:39;;;;;;;1.70;1.40;;;16.40;86.80;;;;;;4978526;28;20122;-64
2021/12/14 06:01:06;;;;;;;1.60;1.27;;;16.40;86.80;;;;;;4993758;28;20050;-64
2021/12/14 06:03:32;;;;;;;1.55;1.40;;;16.40;86.80;;;;;;4988476;28;20134;-64
2021/12/14 06:05:59;;;;;;;1.60;1.30;;;16.40;86.80;;;;;;4974431;28;20476;-64
2021/12/14 06:08:25;;;;;;;1.50;1.40;;;16.40;86.80;;;;;;4978841;28;20053;-64
2021/12/14 06:10:52;;;;;;;1.60;1.30;;;16.40;86.90;;;;;;4981672;28;20056;-64
2021/12/14 06:13:19;;;;;;;1.60;1.48;;;16.40;86.90;;;;;;4990820;28;20129;-64
2021/12/14 06:15:45;;;;;;;1.65;1.45;;;16.40;86.90;;;;;;4976311;28;20130;-63
2021/12/14 06:18:12;;;;;;;1.80;1.45;;;16.40;86.90;;;;;;4975613;28;20051;-64
2021/12/14 06:20:38;;;;;;;1.67;1.45;;;16.40;86.90;;;;;;4993513;28;20475;-64
2021/12/14 06:23:05;;;;;;;1.98;1.70;;;16.40;86.90;;;;;;4993372;28;20038;-64
2021/12/14 06:25:32;;;;;;;2.17;1.55;;;16.40;86.90;;;;;;4989604;28;20073;-64
2021/12/14 06:28:01;;;;;;;1.40;1.30;;;16.30;86.80;;;;;;4992422;28;20109;-63
2021/12/14 06:30:28;;;;;;;2.47;1.80;;;16.30;86.80;;;;;;4992303;28;20125;-64
2021/12/14 06:32:54;;;;;;;2.05;1.70;;;16.30;86.90;;;;;;4993324;28;20046;-63
2021/12/14 06:35:20;;;;;;;1.60;1.40;;;16.30;86.90;;;;;;4992674;28;20407;-64
2021/12/14 06:38:10;;;;;;;1.67;1.30;;;16.30;86.90;;;;;;4992946;28;20138;-64
2021/12/14 06:40:36;;;;;;;1.70;1.60;;;16.30;86.90;;;;;;4993271;28;20050;-64
2021/12/14 06:43:02;;;;;;;1.70;1.60;;;16.30;86.90;;;;;;4993152;28;20129;-64
2021/12/14 06:45:29;;;;;;;1.70;1.40;;;16.30;86.90;;;;;;4993161;28;20117;-64
2021/12/14 06:47:57;;;;;;;1.60;1.50;;;16.30;87.00;;;;;;4993528;28;20133;-63
2021/12/14 06:50:24;;;;;;;1.55;1.45;;;16.30;86.90;;;;;;4993230;28;20129;-64
2021/12/14 06:52:50;;;;;;;1.92;1.50;;;16.30;87.00;;;;;;4993182;28;20050;-64
2021/12/14 06:55:17;;;;;;;2.15;1.63;;;16.30;87.00;;;;;;4992548;28;20054;-63
2021/12/14 06:57:43;;;;;;;1.70;1.40;;;16.20;86.90;;;;;;4992723;28;20567;-64
2021/12/14 07:00:10;;;;;;;1.92;1.70;;;16.20;86.90;;;;;;4992521;28;20125;-64
2021/12/14 07:02:36;;;;;;;1.60;1.50;;;16.20;87.00;;;;;;4992531;28;20133;-64
2021/12/14 07:05:03;;;;;;;1.60;1.50;;;16.20;86.90;;;;;;4973704;28;20047;-64
2021/12/14 07:07:30;;;;;;;1.92;1.77;;;16.20;87.00;;;;;;4973760;28;20086;-64
2021/12/14 07:09:56;;;;;;;1.50;1.40;;;16.20;87.00;;;;;;4973438;28;20051;-63
2021/12/14 07:12:23;;;;;;;1.58;1.48;;;16.20;87.00;;;;;;4973460;28;20567;-64
2021/12/14 07:14:49;;;;;;;1.30;1.20;;;16.20;87.00;;;;;;4973586;28;20134;-64
2021/12/14 07:17:16;;;;;;;2.13;1.50;;;16.20;87.00;;;;;;4973514;28;20050;-64
2021/12/14 07:19:43;;;;;;;2.38;1.73;;;16.20;87.10;;;;;;4973357;28;20419;-63
2021/12/14 07:22:09;;;;;;;2.58;1.70;;;16.20;87.00;;;;;;4981924;28;20138;-65
2021/12/14 07:24:36;;;;;;;1.60;1.50;;;16.10;87.00;;;;;;4984333;28;20047;-64
2021/12/14 07:27:02;;;;;;;1.98;1.60;;;16.20;87.10;;;;;;4987191;28;20468;-64
2021/12/14 07:29:29;;;;;;;1.98;1.60;;;16.10;87.00;;;;;;4992096;28;20061;-64
2021/12/14 07:31:55;;;;;;;1.55;1.45;;;16.10;87.00;;;;;;4992142;28;20053;-64
2021/12/14 07:34:22;;;;;;;2.20;1.83;;;16.10;87.10;;;;;;4992548;28;20049;-64
2021/12/14 07:36:50;;;;;;;2.30;1.80;;;16.10;87.00;;;;;;4990408;28;20049;-64
2021/12/14 07:39:17;;;;;;;2.08;1.60;;;16.10;87.10;;;;;;4992615;28;20077;-64
2021/12/14 07:41:43;;;;;;;1.88;1.70;;;16.10;87.00;;;;;;4992569;28;20042;-64
2021/12/14 07:44:10;;;;;;;1.58;1.45;;;16.10;87.00;;;;;;4991107;28;20056;-64
2021/12/14 07:46:36;;;;;;;1.65;1.55;;;16.10;87.10;;;;;;4989360;28;20141;-64
2021/12/14 07:49:03;;;;;;;2.10;1.88;;;16.10;87.10;;;;;;4992166;28;20053;-64
2021/12/14 07:51:29;;;;;;;1.90;1.50;;;16.10;87.10;;;;;;4989090;28;20579;-64
2021/12/14 07:53:56;;;;;;;2.03;1.83;;;16.10;87.10;;;;;;4984981;28;20073;-64
2021/12/14 07:56:22;;;;;;;2.45;1.65;;;16.10;87.10;;;;;;4992150;28;20138;-64
2021/12/14 07:58:49;;;;;;;2.00;1.70;;;16.00;87.10;;;;;;4992175;28;20046;-64
2021/12/14 08:01:15;;;;;;;1.88;1.60;;;16.00;87.00;;;;;;4982143;28;20145;-64
2021/12/14 08:03:42;;;;;;;1.88;1.50;;;16.00;87.10;;;;;;4988403;28;20053;-64
2021/12/14 08:06:08;;;;;;;1.63;1.52;;;16.00;87.10;;;;;;4987218;28;20047;-64
2021/12/14 08:08:43;;;;;;;2.33;1.88;;;16.00;87.10;;;;;;4972755;28;20139;-64
2021/12/14 08:11:28;;;;;;;1.75;1.63;;;16.00;87.10;;;;;;4976556;28;20051;-64
2021/12/14 08:13:54;;;;;;;2.08;1.83;;;16.00;87.10;;;;;;4972906;28;20047;-64
2021/12/14 08:16:21;;;;;;;1.75;1.65;;;16.00;87.10;;;;;;4975964;28;20043;-64
2021/12/14 08:18:47;;;;;;;1.73;1.63;;;16.00;87.10;;;;;;4992018;28;20054;-64
2021/12/14 08:21:15;;;;;;;2.03;1.75;;;16.00;87.10;;;;;;4992595;28;20069;-64
2021/12/14 08:23:41;;;;;;;2.17;1.75;;;16.00;87.20;;;;;;4991975;28;20644;-64
2021/12/14 08:26:08;;;;;;;2.00;1.65;;;16.00;87.10;;;;;;4989201;28;20054;-64
2021/12/14 08:28:34;;;;;;;2.03;1.83;;;16.00;87.20;;;;;;4972776;28;20141;-64
2021/12/14 08:31:01;;;;;;;2.50;1.80;;;16.00;87.20;;;;;;4972346;28;20054;-65
2021/12/14 08:33:27;;;;;;;1.88;1.65;;;16.00;87.20;;;;;;4975627;28;20184;-64
2021/12/14 08:35:54;;;;;;;2.10;1.77;;;15.90;87.10;;;;;;4990246;28;20114;-64
2021/12/14 08:38:20;;;;;;;2.03;1.55;;;16.00;87.20;;;;;;4972623;28;20042;-64
2021/12/14 08:40:47;;;;;;;1.92;1.70;;;15.90;87.10;;;;;;4987328;28;20077;-63
2021/12/14 08:43:13;;;;;;;1.70;1.60;;;16.00;87.20;;;;;;4990783;28;20078;-64
2021/12/14 08:45:40;;;;;;;1.88;1.70;;;16.00;87.30;;;;;;4975997;28;20050;-63
2021/12/14 08:48:06;;;;;;;1.75;1.65;;;15.90;87.20;;;;;;4991656;28;20043;-64
2021/12/14 08:50:33;;;;;;;1.85;1.67;;;15.90;87.20;;;;;;4995393;28;20137;-64
2021/12/14 08:52:59;;;;;;;1.90;1.70;;;15.90;87.20;;;;;;4992605;28;20060;-63
2021/12/14 08:55:25;;;;;;;2.00;1.80;;;15.90;87.20;;;;;;4980351;28;20483;-64
2021/12/14 08:57:52;;;;;;;1.75;1.65;;;15.90;87.20;;;;;;4993292;28;20417;-64
2021/12/14 09:00:18;;;;;;;1.95;1.80;;;15.90;87.50;;;;;;4992353;28;20050;-64
2021/12/14 09:02:46;;;;;;;2.65;1.65;;;15.90;87.70;;;;;;4994429;28;20050;-64
2021/12/14 09:05:12;;;;;;;3.22;2.30;;;15.90;87.70;;;;;;4994784;28;20049;-64
2021/12/14 09:07:39;;;;;;;2.60;2.30;;;15.90;88.20;;;;;;4995159;28;20525;-64
2021/12/14 09:10:05;;;;;;;2.30;2.10;;;15.90;88.50;;;;;;4995248;28;20073;-65
2021/12/14 09:12:32;;;;;;;1.88;1.67;;;16.00;88.60;;;;;;4989804;28;20062;-64
2021/12/14 09:14:58;;;;;;;1.98;1.70;;;16.20;88.50;;;;;;4975620;28;20043;-64
2021/12/14 09:17:25;;;;;;;1.85;1.65;;;16.40;88.40;;;;;;4975645;28;20093;-65
2021/12/14 09:19:51;;;;;;;1.48;1.35;;;16.60;88.10;;;;;;4987269;28;20073;-65
2021/12/14 09:22:18;;;;;;;1.77;1.33;;;17.00;87.80;;;;;;4978301;28;20161;-65
2021/12/14 09:24:44;;;;;;;2.58;1.40;;;17.20;87.30;;;;;;4977771;28;20078;-65
2021/12/14 09:27:11;;;;;;;2.08;1.35;;;17.50;86.90;;;;;;4983432;28;20440;-65
2021/12/14 09:29:37;;;;;;;1.50;1.20;;;17.80;86.50;;;;;;4980705;28;20129;-65
2021/12/14 09:32:04;;;;;;;1.30;1.20;;;18.10;86.10;;;;;;4984925;28;20046;-66
2021/12/14 09:34:30;;;;;;;1.25;1.15;;;18.30;85.70;;;;;;4990761;28;20133;-66
2021/12/14 09:36:57;;;;;;;1.48;1.13;;;18.60;85.30;;;;;;4991807;28;20147;-65
2021/12/14 09:39:24;;;;;;;1.88;1.10;;;18.80;84.90;;;;;;4991937;28;20089;-65
2021/12/14 09:41:53;;;;;;;1.48;1.35;;;19.10;84.60;;;;;;4991641;28;20046;-65
2021/12/14 09:44:20;;;;;;;1.85;1.20;;;19.30;84.40;;;;;;4991208;28;20046;-65
2021/12/14 09:46:46;;;;;;;1.73;1.13;;;19.40;84.10;;;;;;4976463;28;20058;-65
2021/12/14 09:49:13;;;;;;;1.80;1.20;;;19.60;83.90;;;;;;4980825;28;20046;-69
2021/12/14 09:51:39;;;;;;;1.38;1.20;;;19.70;83.70;;;;;;4974014;28;20552;-64
2021/12/14 09:54:06;;;;;;;1.50;1.30;;;19.80;83.50;;;;;;4979545;28;20046;-64
2021/12/14 09:56:32;;;;;;;1.40;1.30;;;19.90;83.40;;;;;;4990827;28;20133;-65
2021/12/14 09:58:59;;;;;;;2.95;1.20;;;19.90;83.20;;;;;;4991179;28;20089;-64
2021/12/14 10:06:18;;;;;;;1.30;1.20;;;19.90;83.20;;;;;;10568521;27;20634;-63
2021/12/14 10:11:25;;;;;;;1.63;1.38;;;19.90;83.40;;;;;;10552903;28;20439;-65
2021/12/14 10:16:26;;;;;;;1.60;1.50;;;19.90;83.40;;;;;;10553977;28;20054;-65
2021/12/14 10:21:29;;;;;;;1.70;1.33;;;19.90;83.50;;;;;;10528955;28;20048;-65
2021/12/14 10:26:30;;;;;;;2.33;1.50;;;19.90;83.50;;;;;;10529533;28;20080;-64
2021/12/14 10:31:34;;;;;;;1.65;1.33;;;19.90;83.50;;;;;;10529015;28;20414;-65
2021/12/14 10:36:39;;;;;;;1.60;1.42;;;19.90;83.50;;;;;;10529194;28;20053;-65
2021/12/14 10:46:59;;;;;;;1.73;1.42;;;19.90;83.50;;;;;;10529094;28;20028;-65
2021/12/14 10:52:01;;;;;;;1.50;1.40;;;19.90;83.50;;;;;;10530553;28;20044;-65
2021/12/14 10:57:03;;;;;;;2.13;1.50;;;19.90;83.50;;;;;;10528431;28;20044;-65
2021/12/14 11:02:04;;;;;;;1.58;1.48;;;19.80;83.40;;;;;;10553741;28;20554;-64
2021/12/14 11:07:07;;;;;;;2.38;1.88;;;19.90;84.20;;;;;;10522546;28;20732;-65
2021/12/14 11:12:08;;;;;;;3.17;1.90;;;19.90;83.60;;;;;;10520417;28;20067;-67
2021/12/14 11:22:29;;;;;;;3.33;1.60;;;19.90;84.10;;;;;;10494388;28;20420;-65
2021/12/14 11:27:30;;;;;;;5.03;2.00;;;19.90;84.50;;;;;;10494790;28;20432;-65
2021/12/14 11:32:32;;;;;;;5.20;1.73;;;19.90;84.60;;;;;;10493445;28;20494;-65
2021/12/14 11:37:34;;;;;;;3.50;1.80;;;19.90;84.60;;;;;;10493916;28;20048;-66
2021/12/14 11:42:36;;;;;;;3.83;1.88;;;19.70;84.60;;;;;;10493035;28;20118;-65
2021/12/14 11:47:46;;;;;;;3.63;1.85;;;19.60;84.80;;;;;;10493033;28;20420;-65
2021/12/14 11:52:50;;;;;;;3.08;2.20;;;19.40;85.00;;;;;;10496592;28;20056;-64
2021/12/14 11:57:52;;;;;;;5.30;2.38;;;19.20;85.10;;;;;;10498085;28;20044;-65
2021/12/14 12:02:53;;;;;;;4.50;2.75;;;19.00;85.30;;;;;;10497779;28;20063;-65
2021/12/14 12:13:14;;;;;;;3.67;2.33;;;18.80;85.60;;;;;;10456064;28;20474;-66
2021/12/14 12:18:15;;;;;;;5.20;2.40;;;18.60;85.70;;;;;;10455877;28;20498;-65
2021/12/14 12:23:17;;;;;;;5.22;2.13;;;18.50;85.80;;;;;;10455807;28;20079;-65
2021/12/14 12:28:18;;;;;;;3.60;2.70;;;18.50;86.00;;;;;;10454534;28;20505;-65
2021/12/14 12:33:20;;;;;;;5.78;2.47;;;18.40;86.10;;;;;;10455062;28;20055;-65
2021/12/14 12:38:21;;;;;;;4.38;2.03;;;18.30;86.20;;;;;;10457413;28;20056;-65
2021/12/14 12:43:23;;;;;;;10.15;2.75;;;18.20;86.30;;;;;;10495745;28;20054;-64
2021/12/14 12:48:24;;;;;;;8.63;4.60;;;18.10;86.90;;;;;;10496038;28;20045;-64
2021/12/14 12:53:28;;;;;;;8.00;3.70;;;18.10;87.10;;;;;;10495681;28;20055;-65
2021/12/14 12:58:29;;;;;;;5.93;3.38;;;18.00;87.20;;;;;;10495633;28;20101;-64
2021/12/14 13:03:31;;;;;;;6.03;4.20;;;17.90;87.50;;;;;;10494988;28;20059;-70
2021/12/14 13:08:33;;;;;;;7.68;3.88;;;17.90;88.40;;;;;;10479902;28;20041;-65
2021/12/14 13:13:35;;;;;;;5.63;3.70;;;17.90;88.90;;;;;;10453954;28;20051;-66
2021/12/14 13:18:36;;;;;;;6.53;3.40;;;17.80;88.60;;;;;;10453710;28;20089;-65
2021/12/14 13:23:38;;;;;;;6.47;2.90;;;17.80;88.40;;;;;;10453593;28;20056;-65
2021/12/14 13:28:40;;;;;;;5.22;2.92;;;17.70;88.50;;;;;;10453464;28;20436;-65
2021/12/14 13:33:42;;;;;;;3.30;2.58;;;17.70;88.40;;;;;;10452988;28;20052;-65
2021/12/14 13:38:43;;;;;;;3.33;2.53;;;17.60;88.40;;;;;;10464795;28;20102;-66
2021/12/14 13:43:45;;;;;;;5.30;2.88;;;17.60;88.40;;;;;;10494667;28;20044;-66
2021/12/14 13:48:46;;;;;;;6.50;3.00;;;17.50;88.40;;;;;;10494388;28;20056;-65
2021/12/14 13:53:48;;;;;;;4.05;2.88;;;17.50;88.40;;;;;;10494252;28;20044;-65
2021/12/14 13:58:51;;;;;;;3.15;2.50;;;17.50;88.30;;;;;;10494084;28;20131;-65
2021/12/14 14:03:55;;;;;;;4.15;2.47;;;17.50;88.30;;;;;;10493597;28;20064;-65
2021/12/14 14:08:56;;;;;;;2.65;2.33;;;17.40;88.30;;;;;;10463354;28;20076;-65
2021/12/14 14:13:58;;;;;;;4.28;2.30;;;17.40;88.20;;;;;;10452358;28;20060;-65
2021/12/14 14:18:59;;;;;;;3.83;2.60;;;17.40;88.20;;;;;;10452733;28;20056;-65
2021/12/14 14:24:01;;;;;;;3.70;2.30;;;17.40;88.40;;;;;;10452176;28;20049;-65
2021/12/14 14:29:03;;;;;;;2.38;2.00;;;17.40;88.30;;;;;;10464805;28;20496;-65
2021/12/14 14:34:05;;;;;;;3.95;2.30;;;17.40;88.70;;;;;;10489925;28;20044;-65
2021/12/14 14:39:06;;;;;;;3.22;1.88;;;17.40;88.30;;;;;;10491268;28;20451;-65
2021/12/14 14:44:08;;;;;;;3.65;1.90;;;17.60;88.20;;;;;;10475272;28;20048;-65
2021/12/14 14:49:09;;;;;;;3.22;1.80;;;17.90;87.90;;;;;;10471426;28;20036;-66
2021/12/14 14:54:11;;;;;;;3.72;1.80;;;18.30;87.40;;;;;;10498639;28;20056;-65
2021/12/14 14:59:12;;;;;;;3.78;1.92;;;18.50;86.90;;;;;;10497099;28;20056;-67
2021/12/14 15:04:14;;;;;;;2.50;1.73;;;18.80;86.60;;;;;;10480730;28;20069;-67
2021/12/14 15:09:16;;;;;;;2.58;1.90;;;18.90;86.50;;;;;;10485556;28;20361;-67
2021/12/14 15:14:20;;;;;;;2.30;1.65;;;19.00;86.20;;;;;;10486461;28;20049;-67
2021/12/14 15:19:21;;;;;;;2.25;1.67;;;19.10;86.20;;;;;;10465282;28;20045;-67
2021/12/14 15:24:23;;;;;;;3.85;2.05;;;19.20;86.10;;;;;;10466383;28;20056;-67
2021/12/14 15:29:24;;;;;;;2.53;1.77;;;19.20;86.00;;;;;;10482612;28;20052;-67
2021/12/14 15:34:26;;;;;;;2.55;1.60;;;19.30;85.90;;;;;;10498782;28;20044;-67
2021/12/14 15:39:30;;;;;;;2.13;1.73;;;19.30;85.80;;;;;;10491946;28;20045;-67
2021/12/14 15:44:31;;;;;;;1.63;1.38;;;19.40;85.70;;;;;;10457406;28;20498;-67
2021/12/14 15:49:33;;;;;;;1.60;1.50;;;19.40;85.60;;;;;;10457149;28;20490;-67
2021/12/14 15:54:34;;;;;;;1.50;1.33;;;19.40;85.60;;;;;;10457134;28;20053;-67
2021/12/14 15:59:36;;;;;;;1.45;1.35;;;19.40;85.50;;;;;;10456597;28;20079;-67
2021/12/14 16:04:38;;;;;;;1.63;1.33;;;19.40;85.50;;;;;;10456040;28;20057;-67
2021/12/14 16:09:40;;;;;;;1.90;1.70;;;19.40;85.40;;;;;;10459654;28;20049;-67
2021/12/14 16:20:00;;;;;;;2.08;1.30;;;19.40;85.40;;;;;;10497716;28;20115;-67
2021/12/14 16:25:02;;;;;;;1.70;1.40;;;19.40;85.40;;;;;;10495381;28;20059;-67